SCIE/CCP METAR and TAF weather

Enter ICAO airport designator
Station Type Date Time Source
SCIE METAR 2020/04/03 22:00 UTC NOAA

SCIE 032200Z 23014KT CAVOK 19/11 Q1012


Station Type Date Time Source
SCIE Decoded METAR 2020/04/03 22:00 UTC NOAA

Concepcion, Chile (SCIE) 36-46S 073-03W
Apr 03, 2020 - 06:00 PM EDT / 2020.04.03 2200 UTC
Wind: from the SW (230 degrees) at 16 MPH (14 KT):0
Visibility: greater than 7 mile(s):0
Temperature: 66 F (19 C)
Dew Point: 51 F (11 C)
Relative Humidity: 59%
Pressure (altimeter): 29.88 in. Hg (1012 hPa)
ob: SCIE 032200Z 23014KT CAVOK 19/11 Q1012
cycle: 22

Station Type Date Time Source
SCIE TAF 2020/04/03 18:03 UTC NOAA

TAF TAF SCIE 031631Z 0318/0418 22014KT CAVOK TX21/0318Z TN10/0411Z
BECMG 0402/0404 21008KT
TEMPO 0406/0413 18004KT 6000 SCT010
BECMG 0415/0417 22014KT

Example: see airport list